createdAt,value
2018-01-03T00:00:23.809Z,986.94
2018-01-03T00:01:23.808Z,986.92
2018-01-03T00:02:23.799Z,986.89
2018-01-03T00:03:23.793Z,986.86
2018-01-03T00:04:23.787Z,986.81
2018-01-03T00:05:23.782Z,986.77
2018-01-03T00:06:23.778Z,986.72
2018-01-03T00:07:23.773Z,986.68
2018-01-03T00:08:23.767Z,986.69
2018-01-03T00:09:23.762Z,986.58
2018-01-03T00:10:23.758Z,986.56
2018-01-03T00:11:23.752Z,986.57
2018-01-03T00:12:23.746Z,986.42
2018-01-03T00:13:23.741Z,986.40
2018-01-03T00:14:23.737Z,986.41
2018-01-03T00:15:23.732Z,986.30
2018-01-03T00:16:23.725Z,986.25
2018-01-03T00:17:23.724Z,986.21
2018-01-03T00:18:23.716Z,986.18
2018-01-03T00:19:23.711Z,986.20
2018-01-03T00:20:23.705Z,986.07
2018-01-03T00:21:23.701Z,986.03
2018-01-03T00:22:23.695Z,986.07
2018-01-03T00:23:23.690Z,985.97
2018-01-03T00:24:23.684Z,985.92
2018-01-03T00:25:23.678Z,985.83
2018-01-03T00:26:23.675Z,985.80
2018-01-03T00:27:23.670Z,985.82
2018-01-03T00:28:23.663Z,985.88
2018-01-03T00:29:23.658Z,985.78
2018-01-03T00:30:23.655Z,985.84
2018-01-03T00:31:23.649Z,985.83
2018-01-03T00:32:23.644Z,985.90
2018-01-03T00:33:23.639Z,985.80
2018-01-03T00:34:23.635Z,985.83
2018-01-03T00:35:23.628Z,985.78
2018-01-03T00:36:23.624Z,985.78
2018-01-03T00:37:23.618Z,985.74
2018-01-03T00:38:23.613Z,985.72
2018-01-03T00:39:23.610Z,985.67
2018-01-03T00:40:23.604Z,985.62
2018-01-03T00:41:23.599Z,985.61
2018-01-03T00:42:23.594Z,985.51
2018-01-03T00:43:23.589Z,985.59
2018-01-03T00:44:23.583Z,985.51
2018-01-03T00:45:23.578Z,985.45
2018-01-03T00:46:23.573Z,985.40
2018-01-03T00:47:23.568Z,985.25
2018-01-03T00:48:23.563Z,985.25
2018-01-03T00:49:23.557Z,985.21
2018-01-03T00:50:23.553Z,985.21
2018-01-03T00:51:23.549Z,985.17
2018-01-03T00:52:23.543Z,985.05
2018-01-03T00:53:23.538Z,985.03
2018-01-03T00:54:23.533Z,984.93
2018-01-03T00:55:23.534Z,984.96
2018-01-03T00:56:23.523Z,984.76
2018-01-03T00:57:23.519Z,984.71
2018-01-03T00:58:23.512Z,984.65
2018-01-03T00:59:23.509Z,984.60
2018-01-03T01:00:23.502Z,984.57
2018-01-03T01:01:23.497Z,984.53
2018-01-03T01:02:23.493Z,984.41
2018-01-03T01:03:23.488Z,984.43
2018-01-03T01:04:23.482Z,984.30
2018-01-03T01:05:23.477Z,984.29
2018-01-03T01:06:23.475Z,984.16
2018-01-03T01:07:23.468Z,984.10
2018-01-03T01:08:23.463Z,984.06
2018-01-03T01:09:23.457Z,983.88
2018-01-03T01:10:23.453Z,983.89
2018-01-03T01:11:23.449Z,983.75
2018-01-03T01:12:23.443Z,983.65
2018-01-03T01:13:23.439Z,983.46
2018-01-03T01:14:23.432Z,983.42
2018-01-03T01:15:23.428Z,983.42
2018-01-03T01:16:23.422Z,983.30
2018-01-03T01:17:23.418Z,983.13
2018-01-03T01:18:23.414Z,983.09
2018-01-03T01:19:23.409Z,982.95
2018-01-03T01:20:23.404Z,982.88
2018-01-03T01:21:23.399Z,982.76
2018-01-03T01:22:23.394Z,982.79
2018-01-03T01:23:23.389Z,982.74
2018-01-03T01:24:23.384Z,982.74
2018-01-03T01:25:23.378Z,982.71
2018-01-03T01:26:23.373Z,982.64
2018-01-03T01:27:23.370Z,982.62
2018-01-03T01:28:23.365Z,982.58
2018-01-03T01:29:23.361Z,982.51
2018-01-03T01:30:23.355Z,982.50
2018-01-03T01:31:23.350Z,982.55
2018-01-03T01:32:23.345Z,982.48
2018-01-03T01:33:23.340Z,982.44
2018-01-03T01:34:23.336Z,982.36
2018-01-03T01:35:23.331Z,982.34
2018-01-03T01:36:23.324Z,982.27
2018-01-03T01:37:23.321Z,982.16
2018-01-03T01:38:23.317Z,982.06
2018-01-03T01:39:23.310Z,982.04
2018-01-03T01:40:23.306Z,982.06
2018-01-03T01:41:23.300Z,981.95
2018-01-03T01:42:23.296Z,981.88
2018-01-03T01:43:23.292Z,981.75
2018-01-03T01:44:23.286Z,981.75
2018-01-03T01:45:23.283Z,981.68
2018-01-03T01:46:23.279Z,981.56
2018-01-03T01:47:23.274Z,981.57
2018-01-03T01:48:23.269Z,981.43
2018-01-03T01:49:23.264Z,981.42
2018-01-03T01:50:23.259Z,981.39
2018-01-03T01:51:23.257Z,981.38
2018-01-03T01:52:23.248Z,981.29
2018-01-03T01:53:23.244Z,981.21
2018-01-03T01:54:23.240Z,981.03
2018-01-03T01:55:23.236Z,980.99
2018-01-03T01:56:23.231Z,981.00
2018-01-03T01:57:23.227Z,980.91
2018-01-03T01:58:23.222Z,980.96
2018-01-03T01:59:23.218Z,980.88
2018-01-03T02:00:23.211Z,980.92
2018-01-03T02:01:23.207Z,980.89
2018-01-03T02:02:23.204Z,980.68
2018-01-03T02:03:23.198Z,980.58
2018-01-03T02:04:23.194Z,980.54
2018-01-03T02:05:23.190Z,980.48
2018-01-03T02:06:23.184Z,980.32
2018-01-03T02:07:23.180Z,980.26
2018-01-03T02:08:23.174Z,980.13
2018-01-03T02:09:23.170Z,979.99
2018-01-03T02:10:23.165Z,979.94
2018-01-03T02:11:23.161Z,979.86
2018-01-03T02:12:23.156Z,979.86
2018-01-03T02:13:23.151Z,979.78
2018-01-03T02:14:23.148Z,979.66
2018-01-03T02:15:23.151Z,979.64
2018-01-03T02:16:23.136Z,979.53
2018-01-03T02:17:23.132Z,979.39
2018-01-03T02:18:23.128Z,979.38
2018-01-03T02:19:23.123Z,979.26
2018-01-03T02:20:23.119Z,979.12
2018-01-03T02:21:23.114Z,978.93
2018-01-03T02:22:23.109Z,978.90
2018-01-03T02:23:23.110Z,978.78
2018-01-03T02:24:23.099Z,978.69
2018-01-03T02:25:23.095Z,978.56
2018-01-03T02:26:23.089Z,978.50
2018-01-03T02:27:23.085Z,978.49
2018-01-03T02:28:23.080Z,978.48
2018-01-03T02:29:23.076Z,978.35
2018-01-03T02:30:23.072Z,978.39
2018-01-03T02:31:23.067Z,978.32
2018-01-03T02:32:23.062Z,978.50
2018-01-03T02:33:23.058Z,978.30
2018-01-03T02:34:23.052Z,978.23
2018-01-03T02:35:23.048Z,978.26
2018-01-03T02:36:23.042Z,978.15
2018-01-03T02:37:23.038Z,978.05
2018-01-03T02:38:23.034Z,978.04
2018-01-03T02:39:23.030Z,978.15
2018-01-03T02:40:23.024Z,978.21
2018-01-03T02:41:23.019Z,977.91
2018-01-03T02:42:23.013Z,977.92
2018-01-03T02:43:23.010Z,977.96
2018-01-03T02:44:23.004Z,977.88
2018-01-03T02:45:22.999Z,977.59
2018-01-03T02:46:22.996Z,977.56
2018-01-03T02:47:22.991Z,977.72
2018-01-03T02:48:22.985Z,977.74
2018-01-03T02:49:22.981Z,977.57
2018-01-03T02:50:22.977Z,977.40
2018-01-03T02:51:22.971Z,977.24
2018-01-03T02:52:22.967Z,977.22
2018-01-03T02:53:22.962Z,977.10
2018-01-03T02:54:22.958Z,977.07
2018-01-03T02:55:22.954Z,976.96
2018-01-03T02:56:22.949Z,976.95
2018-01-03T02:57:22.944Z,976.83
2018-01-03T02:58:22.939Z,976.76
2018-01-03T02:59:22.935Z,976.81
2018-01-03T03:00:22.928Z,976.73
2018-01-03T03:01:22.925Z,976.69
2018-01-03T03:02:22.921Z,976.68
2018-01-03T03:03:22.917Z,976.56
2018-01-03T03:04:22.910Z,976.50
2018-01-03T03:05:22.906Z,976.48
2018-01-03T03:06:22.901Z,976.33
2018-01-03T03:07:22.901Z,976.31
2018-01-03T03:08:22.890Z,976.15
2018-01-03T03:09:22.886Z,975.99
2018-01-03T03:10:22.883Z,976.06
2018-01-03T03:11:22.878Z,975.93
2018-01-03T03:12:22.876Z,975.92
2018-01-03T03:13:22.868Z,975.92
2018-01-03T03:14:22.864Z,975.81
2018-01-03T03:15:22.859Z,975.85
2018-01-03T03:16:22.855Z,975.70
2018-01-03T03:17:22.850Z,975.67
2018-01-03T03:18:22.845Z,975.64
2018-01-03T03:19:22.840Z,975.44
2018-01-03T03:20:22.835Z,975.62
2018-01-03T03:21:22.831Z,975.30
2018-01-03T03:22:22.827Z,975.41
2018-01-03T03:23:22.823Z,975.43
2018-01-03T03:24:22.816Z,975.49
2018-01-03T03:25:22.813Z,975.30
2018-01-03T03:26:22.808Z,975.30
2018-01-03T03:27:22.804Z,975.32
2018-01-03T03:28:22.799Z,975.04
2018-01-03T03:29:22.794Z,974.93
2018-01-03T03:30:22.792Z,974.70
2018-01-03T03:31:22.786Z,974.68
2018-01-03T03:32:22.781Z,974.85
2018-01-03T03:33:22.775Z,974.82
2018-01-03T03:34:22.772Z,974.72
2018-01-03T03:35:22.769Z,974.83
2018-01-03T03:36:22.765Z,974.69
2018-01-03T03:37:22.759Z,974.71
2018-01-03T03:38:22.754Z,974.57
2018-01-03T03:39:22.749Z,974.57
2018-01-03T03:40:22.744Z,974.65
2018-01-03T03:41:22.740Z,974.56
2018-01-03T03:42:22.738Z,974.45
2018-01-03T03:43:22.732Z,974.51
2018-01-03T03:44:22.727Z,974.49
2018-01-03T03:45:22.723Z,974.24
2018-01-03T03:46:22.718Z,974.31
2018-01-03T03:47:22.713Z,974.15
2018-01-03T03:48:22.710Z,974.15
2018-01-03T03:49:22.705Z,974.20
2018-01-03T03:50:22.702Z,974.10
2018-01-03T03:51:22.704Z,974.05
2018-01-03T03:52:22.692Z,973.89
2018-01-03T03:53:22.688Z,973.99
2018-01-03T03:54:22.683Z,973.91
2018-01-03T03:55:22.679Z,973.86
2018-01-03T03:56:22.675Z,973.90
2018-01-03T03:57:22.671Z,973.92
2018-01-03T03:58:22.668Z,974.01
2018-01-03T03:59:22.664Z,974.11
2018-01-03T04:00:22.658Z,974.11
2018-01-03T04:01:22.654Z,974.06
2018-01-03T04:02:22.649Z,974.05
2018-01-03T04:03:22.647Z,974.04
2018-01-03T04:04:22.642Z,973.95
2018-01-03T04:05:22.639Z,974.05
2018-01-03T04:06:22.634Z,974.01
2018-01-03T04:07:22.629Z,974.06
2018-01-03T04:08:22.624Z,974.33
2018-01-03T04:09:22.621Z,974.21
2018-01-03T04:10:22.617Z,974.24
2018-01-03T04:11:22.613Z,974.27
2018-01-03T04:12:22.609Z,974.37
2018-01-03T04:13:22.605Z,974.53
2018-01-03T04:14:22.603Z,974.48
2018-01-03T04:15:22.598Z,974.91
2018-01-03T04:16:22.592Z,975.01
2018-01-03T04:17:22.589Z,974.83
2018-01-03T04:18:22.632Z,975.01
2018-01-03T04:19:22.580Z,974.95
2018-01-03T04:20:22.576Z,975.39
2018-01-03T04:21:22.571Z,975.12
2018-01-03T04:22:22.569Z,975.00
2018-01-03T04:23:22.566Z,974.94
2018-01-03T04:24:22.561Z,974.78
2018-01-03T04:25:22.556Z,974.76
2018-01-03T04:26:22.553Z,974.68
2018-01-03T04:27:22.554Z,974.61
2018-01-03T04:28:22.544Z,974.40
2018-01-03T04:29:22.540Z,974.23
2018-01-03T04:30:22.537Z,974.41
2018-01-03T04:31:22.534Z,974.35
2018-01-03T04:32:22.528Z,974.32
2018-01-03T04:33:22.523Z,974.43
2018-01-03T04:34:22.520Z,974.43
2018-01-03T04:35:22.517Z,974.45
2018-01-03T04:36:22.513Z,974.38
2018-01-03T04:37:22.511Z,974.34
2018-01-03T04:38:22.505Z,974.42
2018-01-03T04:39:22.501Z,974.33
2018-01-03T04:40:22.496Z,974.26
2018-01-03T04:41:22.493Z,974.21
2018-01-03T04:42:22.489Z,974.16
2018-01-03T04:43:22.492Z,974.15
2018-01-03T04:44:22.481Z,974.09
2018-01-03T04:45:22.478Z,974.13
2018-01-03T04:46:22.477Z,974.11
2018-01-03T04:47:22.470Z,974.27
2018-01-03T04:48:22.465Z,974.26
2018-01-03T04:49:22.462Z,974.34
2018-01-03T04:50:22.459Z,974.36
2018-01-03T04:51:22.455Z,974.48
2018-01-03T04:52:22.449Z,974.50
2018-01-03T04:53:22.446Z,974.36
2018-01-03T04:54:22.444Z,974.25
2018-01-03T04:55:22.439Z,974.30
2018-01-03T04:56:22.435Z,974.32
2018-01-03T04:57:22.431Z,974.37
2018-01-03T04:58:22.427Z,974.38
2018-01-03T04:59:22.424Z,974.38
2018-01-03T05:00:22.420Z,974.39
2018-01-03T05:01:22.419Z,974.30
2018-01-03T05:02:22.413Z,974.19
2018-01-03T05:03:22.409Z,974.29
2018-01-03T05:04:22.404Z,974.21
2018-01-03T05:05:22.401Z,974.06
2018-01-03T05:06:22.398Z,974.10
2018-01-03T05:07:22.394Z,974.05
2018-01-03T05:08:22.390Z,974.02
2018-01-03T05:09:22.385Z,974.01
2018-01-03T05:10:22.383Z,973.99
2018-01-03T05:11:22.379Z,974.05
2018-01-03T05:12:22.375Z,974.06
2018-01-03T05:13:22.371Z,974.10
2018-01-03T05:14:22.367Z,974.11
2018-01-03T05:15:22.365Z,974.11
2018-01-03T05:16:22.360Z,974.21
2018-01-03T05:17:22.357Z,974.15
2018-01-03T05:18:22.356Z,974.22
2018-01-03T05:19:22.351Z,974.17
2018-01-03T05:20:22.346Z,974.21
2018-01-03T05:21:22.344Z,974.16
2018-01-03T05:22:22.339Z,974.23
2018-01-03T05:23:22.338Z,974.22
2018-01-03T05:24:22.332Z,974.18
2018-01-03T05:25:22.327Z,974.22
2018-01-03T05:26:22.323Z,974.25
2018-01-03T05:27:22.320Z,974.28
2018-01-03T05:28:22.318Z,974.43
2018-01-03T05:29:22.314Z,974.46
2018-01-03T05:30:22.309Z,974.45
2018-01-03T05:31:22.308Z,974.53
2018-01-03T05:32:22.300Z,974.56
2018-01-03T05:33:22.298Z,974.59
2018-01-03T05:34:22.295Z,974.62
2018-01-03T05:35:22.291Z,974.67
2018-01-03T05:36:22.289Z,974.68
2018-01-03T05:37:22.282Z,974.78
2018-01-03T05:38:22.279Z,974.84
2018-01-03T05:39:22.278Z,974.73
2018-01-03T05:40:22.272Z,974.76
2018-01-03T05:41:22.269Z,974.88
2018-01-03T05:42:22.280Z,974.82
2018-01-03T05:43:22.262Z,974.81
2018-01-03T05:44:22.257Z,974.81
2018-01-03T05:45:22.254Z,974.78
2018-01-03T05:46:22.251Z,974.81
2018-01-03T05:47:22.248Z,974.83
2018-01-03T05:48:22.243Z,974.70
2018-01-03T05:49:22.238Z,974.68
2018-01-03T05:50:22.236Z,974.65
2018-01-03T05:51:22.233Z,974.68
2018-01-03T05:52:22.227Z,974.53
2018-01-03T05:53:22.225Z,974.64
2018-01-03T05:54:22.220Z,974.49
2018-01-03T05:55:22.217Z,974.53
2018-01-03T05:56:22.213Z,974.44
2018-01-03T05:57:22.210Z,974.45
2018-01-03T05:58:22.207Z,974.37
2018-01-03T05:59:22.203Z,974.46
2018-01-03T06:00:22.198Z,974.60
2018-01-03T06:01:22.195Z,974.58
2018-01-03T06:02:22.192Z,974.77
2018-01-03T06:03:22.188Z,974.61
2018-01-03T06:04:22.183Z,974.68
2018-01-03T06:05:22.181Z,974.56
2018-01-03T06:06:22.177Z,974.66
2018-01-03T06:07:22.173Z,974.59
2018-01-03T06:08:22.168Z,974.59
2018-01-03T06:09:22.165Z,974.64
2018-01-03T06:10:22.162Z,974.68
2018-01-03T06:11:22.159Z,974.68
2018-01-03T06:12:22.154Z,974.60
2018-01-03T06:13:22.150Z,974.58
2018-01-03T06:14:22.146Z,974.50
2018-01-03T06:15:22.142Z,974.55
2018-01-03T06:16:22.138Z,974.57
2018-01-03T06:17:22.134Z,974.52
2018-01-03T06:18:22.131Z,974.56
2018-01-03T06:19:22.127Z,974.52
2018-01-03T06:20:22.126Z,974.61
2018-01-03T06:21:22.119Z,974.55
2018-01-03T06:22:22.119Z,974.54
2018-01-03T06:23:22.112Z,974.59
2018-01-03T06:24:22.108Z,974.58
2018-01-03T06:25:22.104Z,974.56
2018-01-03T06:26:22.100Z,974.50
2018-01-03T06:27:22.096Z,974.64
2018-01-03T06:28:22.091Z,974.50
2018-01-03T06:29:22.094Z,974.46
2018-01-03T06:30:22.084Z,974.41
2018-01-03T06:31:22.082Z,974.50
2018-01-03T06:32:22.077Z,974.50
2018-01-03T06:33:22.073Z,974.42
2018-01-03T06:34:22.070Z,974.35
2018-01-03T06:35:22.066Z,974.33
2018-01-03T06:36:22.061Z,974.35
2018-01-03T06:37:22.058Z,974.31
2018-01-03T06:38:22.054Z,974.24
2018-01-03T06:39:22.051Z,974.20
2018-01-03T06:40:22.047Z,974.07
2018-01-03T06:41:22.042Z,974.14
2018-01-03T06:42:22.039Z,974.10
2018-01-03T06:43:22.035Z,974.08
2018-01-03T06:44:22.031Z,974.13
2018-01-03T06:45:22.060Z,974.16
2018-01-03T06:46:22.023Z,974.14
2018-01-03T06:47:22.019Z,974.06
2018-01-03T06:48:22.015Z,974.15
2018-01-03T06:49:22.011Z,974.05
2018-01-03T06:50:22.008Z,973.97
2018-01-03T06:51:22.004Z,973.99
2018-01-03T06:52:21.999Z,974.02
2018-01-03T06:53:21.995Z,973.93
2018-01-03T06:54:21.992Z,973.97
2018-01-03T06:55:21.988Z,973.96
2018-01-03T06:56:21.983Z,973.92
2018-01-03T06:57:21.980Z,974.02
2018-01-03T06:58:21.975Z,974.03
2018-01-03T06:59:21.973Z,973.96
2018-01-03T07:00:21.967Z,974.07
2018-01-03T07:01:21.964Z,973.90
2018-01-03T07:02:21.960Z,973.92
2018-01-03T07:03:21.956Z,973.93
2018-01-03T07:04:21.952Z,973.89
2018-01-03T07:05:21.949Z,973.98
2018-01-03T07:06:21.944Z,974.02
2018-01-03T07:07:21.941Z,973.97
2018-01-03T07:08:21.936Z,973.98
2018-01-03T07:09:21.932Z,973.88
2018-01-03T07:10:21.927Z,973.87
2018-01-03T07:11:21.925Z,973.93
2018-01-03T07:12:21.920Z,973.89
2018-01-03T07:13:21.916Z,973.77
2018-01-03T07:14:21.912Z,973.79
2018-01-03T07:15:21.909Z,973.90
2018-01-03T07:16:21.903Z,973.98
2018-01-03T07:17:21.900Z,973.90
2018-01-03T07:18:21.896Z,973.93
2018-01-03T07:19:21.892Z,973.88
2018-01-03T07:20:21.888Z,973.83
2018-01-03T07:21:21.884Z,973.68
2018-01-03T07:22:21.878Z,973.84
2018-01-03T07:23:21.876Z,973.82
2018-01-03T07:24:21.871Z,973.78
2018-01-03T07:25:21.871Z,973.73
2018-01-03T07:26:21.864Z,973.78
2018-01-03T07:27:21.859Z,973.90
2018-01-03T07:28:21.855Z,973.81
2018-01-03T07:29:21.854Z,973.89
2018-01-03T07:30:21.847Z,974.18
2018-01-03T07:31:21.844Z,974.33
2018-01-03T07:32:21.839Z,974.39
2018-01-03T07:33:21.835Z,974.47
2018-01-03T07:34:21.831Z,974.92
2018-01-03T07:35:21.828Z,974.59
2018-01-03T07:36:21.826Z,974.41
2018-01-03T07:37:21.818Z,974.62
2018-01-03T07:38:21.815Z,974.78
2018-01-03T07:39:21.811Z,974.72
2018-01-03T07:40:21.806Z,974.80
2018-01-03T07:41:21.802Z,974.70
2018-01-03T07:42:21.798Z,974.60
2018-01-03T07:43:21.793Z,974.73
2018-01-03T07:44:21.787Z,974.71
2018-01-03T07:45:21.785Z,974.71
2018-01-03T07:46:21.780Z,974.80
2018-01-03T07:47:21.776Z,974.68
2018-01-03T07:48:21.771Z,974.79
2018-01-03T07:49:21.767Z,974.77
2018-01-03T07:50:21.764Z,974.77
2018-01-03T07:51:21.757Z,974.92
2018-01-03T07:52:21.753Z,974.91
2018-01-03T07:53:21.748Z,974.94
2018-01-03T07:54:21.744Z,974.89
2018-01-03T07:55:21.739Z,974.84
2018-01-03T07:56:21.734Z,975.05
2018-01-03T07:57:21.730Z,974.93
2018-01-03T07:58:21.724Z,974.97
2018-01-03T07:59:21.720Z,974.91
2018-01-03T08:00:21.715Z,974.95
2018-01-03T08:01:21.710Z,975.14
2018-01-03T08:02:21.707Z,975.07
2018-01-03T08:03:21.702Z,975.11
2018-01-03T08:04:21.696Z,975.03
2018-01-03T08:05:21.692Z,975.14
2018-01-03T08:06:21.687Z,975.20
2018-01-03T08:07:21.700Z,975.15
2018-01-03T08:08:21.676Z,975.17
2018-01-03T08:09:21.670Z,975.20
2018-01-03T08:10:21.668Z,975.25
2018-01-03T08:11:21.663Z,975.28
2018-01-03T08:12:21.662Z,975.37
2018-01-03T08:13:21.653Z,975.34
2018-01-03T08:14:21.647Z,975.31
2018-01-03T08:15:21.642Z,975.41
2018-01-03T08:16:21.637Z,975.45
2018-01-03T08:17:21.632Z,975.61
2018-01-03T08:18:21.627Z,975.51
2018-01-03T08:19:21.622Z,975.42
2018-01-03T08:20:21.616Z,975.44
2018-01-03T08:21:21.611Z,975.38
2018-01-03T08:22:21.607Z,975.43
2018-01-03T08:23:21.602Z,975.46
2018-01-03T08:24:21.596Z,975.49
2018-01-03T08:25:21.591Z,975.44
2018-01-03T08:26:21.586Z,975.45
2018-01-03T08:27:21.582Z,975.50
2018-01-03T08:28:21.575Z,975.45
2018-01-03T08:29:21.570Z,975.51
2018-01-03T08:30:21.566Z,975.60
2018-01-03T08:31:21.561Z,975.72
2018-01-03T08:32:21.555Z,975.66
2018-01-03T08:33:21.550Z,975.78
2018-01-03T08:34:21.549Z,975.66
2018-01-03T08:35:21.541Z,975.67
2018-01-03T08:36:21.536Z,975.68
2018-01-03T08:37:21.530Z,975.70
2018-01-03T08:38:21.525Z,975.82
2018-01-03T08:39:21.518Z,975.78
2018-01-03T08:40:21.514Z,975.82
2018-01-03T08:41:21.509Z,975.73
2018-01-03T08:42:21.504Z,975.66
2018-01-03T08:43:21.499Z,975.70
2018-01-03T08:44:21.493Z,975.82
2018-01-03T08:45:21.489Z,975.66
2018-01-03T08:46:21.484Z,975.70
2018-01-03T08:47:21.478Z,975.78
2018-01-03T08:48:21.472Z,975.75
2018-01-03T08:49:21.468Z,975.73
2018-01-03T08:50:21.484Z,975.82
2018-01-03T08:51:21.458Z,975.46
2018-01-03T08:52:21.451Z,975.80
2018-01-03T08:53:21.447Z,975.77
2018-01-03T08:54:21.442Z,975.73
2018-01-03T08:55:21.438Z,975.69
2018-01-03T08:56:21.431Z,975.80
2018-01-03T08:57:21.426Z,975.62
2018-01-03T08:58:21.421Z,975.66
2018-01-03T08:59:21.416Z,975.67
2018-01-03T09:00:21.410Z,975.53
2018-01-03T09:01:21.405Z,975.75
2018-01-03T09:02:21.399Z,975.70
2018-01-03T09:03:21.395Z,975.81
2018-01-03T09:04:21.389Z,975.75
2018-01-03T09:05:21.385Z,975.78
2018-01-03T09:06:21.379Z,975.82
2018-01-03T09:07:21.374Z,975.85
2018-01-03T09:08:21.368Z,975.85
2018-01-03T09:09:21.365Z,975.87
2018-01-03T09:10:21.358Z,975.90
2018-01-03T09:11:21.353Z,975.95
2018-01-03T09:12:21.347Z,975.98
2018-01-03T09:13:21.342Z,975.96
2018-01-03T09:14:21.337Z,975.94
2018-01-03T09:15:21.368Z,975.86
2018-01-03T09:16:21.327Z,976.00
2018-01-03T09:17:21.322Z,975.89
2018-01-03T09:18:21.317Z,975.97
2018-01-03T09:19:21.313Z,975.96
2018-01-03T09:20:21.307Z,975.90
2018-01-03T09:21:21.301Z,975.88
2018-01-03T09:22:21.297Z,975.96
2018-01-03T09:23:21.293Z,975.92
2018-01-03T09:24:21.288Z,975.99
2018-01-03T09:25:21.282Z,976.00
2018-01-03T09:26:21.277Z,976.08
2018-01-03T09:27:21.272Z,976.07
2018-01-03T09:28:21.269Z,976.09
2018-01-03T09:29:21.263Z,976.13
2018-01-03T09:30:21.260Z,976.21
2018-01-03T09:31:21.252Z,976.22
2018-01-03T09:32:21.255Z,976.21
2018-01-03T09:33:21.243Z,976.07
2018-01-03T09:34:21.241Z,976.16
2018-01-03T09:35:21.237Z,976.15
2018-01-03T09:36:21.228Z,976.22
2018-01-03T09:37:21.224Z,976.19
2018-01-03T09:38:21.219Z,976.25
2018-01-03T09:39:21.214Z,976.23
2018-01-03T09:40:21.208Z,976.21
2018-01-03T09:41:21.204Z,976.44
2018-01-03T09:42:21.199Z,976.31
2018-01-03T09:43:21.195Z,976.23
2018-01-03T09:44:21.189Z,976.06
2018-01-03T09:45:21.189Z,976.23
2018-01-03T09:46:21.181Z,976.17
2018-01-03T09:47:21.176Z,976.22
2018-01-03T09:48:21.170Z,976.07
2018-01-03T09:49:21.166Z,976.11
2018-01-03T09:50:21.161Z,976.12
2018-01-03T09:51:21.157Z,976.26
2018-01-03T09:52:21.152Z,976.24
2018-01-03T09:53:21.146Z,976.19
2018-01-03T09:54:21.143Z,976.34
2018-01-03T09:55:21.139Z,976.40
2018-01-03T09:56:21.154Z,976.21
2018-01-03T09:57:21.128Z,976.30
2018-01-03T09:58:21.123Z,976.18
2018-01-03T09:59:21.120Z,976.26
2018-01-03T10:00:21.114Z,976.28
2018-01-03T10:01:21.109Z,976.44
2018-01-03T10:02:21.105Z,976.37
2018-01-03T10:03:21.100Z,976.34
2018-01-03T10:04:21.096Z,976.22
2018-01-03T10:05:21.090Z,976.22
2018-01-03T10:06:21.088Z,976.42
2018-01-03T10:07:21.081Z,976.29
2018-01-03T10:08:21.076Z,976.41
2018-01-03T10:09:21.071Z,976.26
2018-01-03T10:10:21.068Z,976.41
2018-01-03T10:11:21.063Z,976.20
2018-01-03T10:12:21.058Z,976.28
2018-01-03T10:13:21.053Z,976.30
2018-01-03T10:14:21.048Z,976.26
2018-01-03T10:15:21.043Z,976.38
2018-01-03T10:16:21.084Z,976.42
2018-01-03T10:17:21.035Z,976.47
2018-01-03T10:18:21.029Z,976.48
2018-01-03T10:19:21.026Z,976.40
2018-01-03T10:20:21.021Z,976.32
2018-01-03T10:21:21.016Z,976.30
2018-01-03T10:22:21.012Z,976.37
2018-01-03T10:23:21.006Z,976.39
2018-01-03T10:24:21.002Z,976.34
2018-01-03T10:25:20.998Z,976.35
2018-01-03T10:26:20.993Z,976.22
2018-01-03T10:27:20.989Z,976.34
2018-01-03T10:28:20.984Z,976.64
2018-01-03T10:29:20.979Z,976.49
2018-01-03T10:30:20.975Z,976.37
2018-01-03T10:31:20.969Z,976.44
2018-01-03T10:32:20.965Z,976.38
2018-01-03T10:33:20.961Z,976.38
2018-01-03T10:34:20.958Z,976.39
2018-01-03T10:35:20.952Z,976.38
2018-01-03T10:36:20.946Z,976.43
2018-01-03T10:37:20.942Z,976.42
2018-01-03T10:38:20.938Z,976.42
2018-01-03T10:39:20.933Z,976.41
2018-01-03T10:40:20.929Z,976.43
2018-01-03T10:41:20.924Z,976.39
2018-01-03T10:42:20.920Z,976.42
2018-01-03T10:43:20.915Z,976.46
2018-01-03T10:44:20.909Z,976.44
2018-01-03T10:45:20.905Z,976.49
2018-01-03T10:46:20.901Z,976.46
2018-01-03T10:47:20.895Z,976.62
2018-01-03T10:48:20.891Z,976.92
2018-01-03T10:49:20.887Z,976.62
2018-01-03T10:50:20.881Z,976.63
2018-01-03T10:51:20.879Z,976.59
2018-01-03T10:52:20.873Z,976.61
2018-01-03T10:53:20.868Z,976.75
2018-01-03T10:54:20.863Z,976.61
2018-01-03T10:55:20.859Z,976.69
2018-01-03T10:56:20.852Z,976.81
2018-01-03T10:57:20.848Z,976.56
2018-01-03T10:58:20.845Z,976.93
2018-01-03T10:59:20.839Z,976.91
2018-01-03T11:00:20.833Z,976.84
2018-01-03T11:01:20.829Z,976.93
2018-01-03T11:02:20.824Z,976.83
2018-01-03T11:03:20.818Z,976.92
2018-01-03T11:04:20.813Z,976.88
2018-01-03T11:05:20.808Z,976.80
2018-01-03T11:06:20.802Z,976.86
2018-01-03T11:07:20.799Z,976.88
2018-01-03T11:08:20.791Z,976.90
2018-01-03T11:09:20.788Z,976.90
2018-01-03T11:10:20.783Z,976.83
2018-01-03T11:11:20.778Z,976.85
2018-01-03T11:12:20.772Z,976.92
2018-01-03T11:13:20.767Z,976.90
2018-01-03T11:14:20.762Z,976.81
2018-01-03T11:15:20.756Z,976.79
2018-01-03T11:16:20.750Z,976.84
2018-01-03T11:17:20.745Z,977.03
2018-01-03T11:18:20.741Z,977.14
2018-01-03T11:19:20.735Z,976.89
2018-01-03T11:20:20.730Z,976.94
2018-01-03T11:21:20.724Z,976.73
2018-01-03T11:22:20.719Z,976.87
2018-01-03T11:23:20.714Z,976.96
2018-01-03T11:24:20.708Z,976.70
2018-01-03T11:25:20.703Z,976.90
2018-01-03T11:26:20.752Z,976.76
2018-01-03T11:27:20.693Z,976.70
2018-01-03T11:28:20.686Z,976.79
2018-01-03T11:29:20.681Z,976.71
2018-01-03T11:30:20.676Z,976.78
2018-01-03T11:31:20.671Z,976.71
2018-01-03T11:32:20.667Z,976.84
2018-01-03T11:33:20.659Z,976.64
2018-01-03T11:34:20.654Z,976.63
2018-01-03T11:35:20.648Z,976.89
2018-01-03T11:36:20.641Z,976.81
2018-01-03T11:37:20.637Z,976.85
2018-01-03T11:38:20.632Z,976.76
2018-01-03T11:39:20.626Z,976.81
2018-01-03T11:40:20.620Z,976.65
2018-01-03T11:41:20.615Z,976.92
2018-01-03T11:42:20.609Z,976.72
2018-01-03T11:43:20.604Z,976.93
2018-01-03T11:44:20.597Z,976.82
2018-01-03T11:45:20.591Z,976.83
2018-01-03T11:46:20.585Z,976.60
2018-01-03T11:47:20.580Z,976.93
2018-01-03T11:48:20.573Z,976.98
2018-01-03T11:49:20.569Z,977.08
2018-01-03T11:50:20.564Z,977.00
2018-01-03T11:51:20.559Z,977.05
2018-01-03T11:52:20.552Z,976.93
2018-01-03T11:53:20.547Z,976.98
2018-01-03T11:54:20.542Z,976.95
2018-01-03T11:55:20.536Z,977.02
2018-01-03T11:56:20.529Z,977.12
2018-01-03T11:57:20.524Z,977.20
2018-01-03T11:58:20.518Z,977.12
2018-01-03T11:59:20.512Z,977.16
2018-01-03T12:00:20.506Z,977.16
2018-01-03T12:01:20.501Z,977.36
2018-01-03T12:02:20.495Z,977.34
2018-01-03T12:03:20.488Z,977.20
2018-01-03T12:04:20.482Z,977.26
2018-01-03T12:05:20.476Z,977.55
2018-01-03T12:06:20.470Z,977.15
2018-01-03T12:07:20.465Z,977.31
2018-01-03T12:08:20.459Z,977.37
2018-01-03T12:09:20.453Z,977.31
2018-01-03T12:10:20.452Z,977.27
2018-01-03T12:11:20.443Z,977.52
2018-01-03T12:12:20.438Z,977.29
2018-01-03T12:13:20.433Z,977.47
2018-01-03T12:14:20.425Z,977.16
2018-01-03T12:15:20.419Z,977.23
2018-01-03T12:16:20.412Z,977.39
2018-01-03T12:17:20.407Z,977.67
2018-01-03T12:18:20.401Z,977.44
2018-01-03T12:19:20.395Z,977.29
2018-01-03T12:20:20.389Z,977.35
2018-01-03T12:21:20.384Z,977.36
2018-01-03T12:22:20.377Z,977.20
2018-01-03T12:23:20.373Z,977.49
2018-01-03T12:24:20.364Z,977.30
2018-01-03T12:25:20.360Z,977.34
2018-01-03T12:26:20.354Z,977.49
2018-01-03T12:27:20.350Z,977.30
2018-01-03T12:28:20.343Z,977.34